sensor_id;sensor_type;location;lat;lon;timestamp;temperature;humidity
27423;DHT22;14878;50.778;0.258;2022-11-03T00:00:08;15.30;99.90
27423;DHT22;14878;50.778;0.258;2022-11-03T00:01:10;15.30;99.90
27423;DHT22;14878;50.778;0.258;2022-11-03T00:02:11;15.30;99.90
27423;DHT22;14878;50.778;0.258;2022-11-03T00:03:11;15.30;99.90
27423;DHT22;14878;50.778;0.258;2022-11-03T00:04:14;15.30;99.90
27423;DHT22;14878;50.778;0.258;2022-11-03T00:05:15;15.30;99.90
27423;DHT22;14878;50.778;0.258;2022-11-03T00:06:34;15.30;99.90
27423;DHT22;14878;50.778;0.258;2022-11-03T00:07:35;15.30;99.90
27423;DHT22;14878;50.778;0.258;2022-11-03T01:24:57;15.10;99.90
27423;DHT22;14878;50.778;0.258;2022-11-03T01:26:06;15.10;99.90
27423;DHT22;14878;50.778;0.258;2022-11-03T01:27:13;15.00;99.90
27423;DHT22;14878;50.778;0.258;2022-11-03T01:28:14;15.00;99.90
27423;DHT22;14878;50.778;0.258;2022-11-03T01:29:15;14.90;99.90
27423;DHT22;14878;50.778;0.258;2022-11-03T01:30:16;14.90;99.90
27423;DHT22;14878;50.778;0.258;2022-11-03T01:31:19;14.90;99.90
27423;DHT22;14878;50.778;0.258;2022-11-03T01:32:20;14.90;99.90
27423;DHT22;14878;50.778;0.258;2022-11-03T01:33:21;14.90;99.90
27423;DHT22;14878;50.778;0.258;2022-11-03T01:34:22;14.90;99.90
27423;DHT22;14878;50.778;0.258;2022-11-03T01:35:22;14.90;99.90
27423;DHT22;14878;50.778;0.258;2022-11-03T01:36:23;15.00;99.90
27423;DHT22;14878;50.778;0.258;2022-11-03T01:37:24;15.00;99.90
27423;DHT22;14878;50.778;0.258;2022-11-03T01:38:27;15.00;99.90
27423;DHT22;14878;50.778;0.258;2022-11-03T01:39:30;15.00;99.90
27423;DHT22;14878;50.778;0.258;2022-11-03T01:40:31;15.10;99.90
27423;DHT22;14878;50.778;0.258;2022-11-03T01:41:31;15.10;99.90
27423;DHT22;14878;50.778;0.258;2022-11-03T01:42:33;15.10;99.90
27423;DHT22;14878;50.778;0.258;2022-11-03T01:43:34;15.10;99.90
27423;DHT22;14878;50.778;0.258;2022-11-03T01:44:42;15.10;99.90
27423;DHT22;14878;50.778;0.258;2022-11-03T01:45:47;15.10;99.90
27423;DHT22;14878;50.778;0.258;2022-11-03T01:47:11;15.00;99.90
27423;DHT22;14878;50.778;0.258;2022-11-03T01:48:13;15.00;99.90
27423;DHT22;14878;50.778;0.258;2022-11-03T01:49:43;15.00;99.90
27423;DHT22;14878;50.778;0.258;2022-11-03T01:50:46;15.10;99.90
27423;DHT22;14878;50.778;0.258;2022-11-03T01:51:59;15.10;99.90
27423;DHT22;14878;50.778;0.258;2022-11-03T01:53:02;15.10;99.90
27423;DHT22;14878;50.778;0.258;2022-11-03T01:54:06;15.10;99.90
27423;DHT22;14878;50.778;0.258;2022-11-03T01:55:19;14.20;99.90
27423;DHT22;14878;50.778;0.258;2022-11-03T01:56:21;15.10;99.90
27423;DHT22;14878;50.778;0.258;2022-11-03T01:57:26;15.10;99.90
27423;DHT22;14878;50.778;0.258;2022-11-03T01:58:31;15.10;99.90
27423;DHT22;14878;50.778;0.258;2022-11-03T01:59:33;15.10;99.90
27423;DHT22;14878;50.778;0.258;2022-11-03T02:00:35;15.10;99.90
27423;DHT22;14878;50.778;0.258;2022-11-03T02:01:35;15.10;99.90
27423;DHT22;14878;50.778;0.258;2022-11-03T02:02:36;15.10;99.90
27423;DHT22;14878;50.778;0.258;2022-11-03T02:03:41;15.10;99.90
27423;DHT22;14878;50.778;0.258;2022-11-03T02:04:42;15.10;99.90
27423;DHT22;14878;50.778;0.258;2022-11-03T02:05:44;15.10;99.90
27423;DHT22;14878;50.778;0.258;2022-11-03T02:06:52;15.10;99.90
27423;DHT22;14878;50.778;0.258;2022-11-03T02:08:01;15.20;99.90
27423;DHT22;14878;50.778;0.258;2022-11-03T02:09:06;15.10;99.90
27423;DHT22;14878;50.778;0.258;2022-11-03T02:10:08;15.10;99.90
27423;DHT22;14878;50.778;0.258;2022-11-03T02:11:09;15.20;99.90
27423;DHT22;14878;50.778;0.258;2022-11-03T02:12:28;15.20;99.90
27423;DHT22;14878;50.778;0.258;2022-11-03T02:13:29;15.20;99.90
27423;DHT22;14878;50.778;0.258;2022-11-03T02:14:30;15.20;99.90
27423;DHT22;14878;50.778;0.258;2022-11-03T02:15:31;15.20;99.90
27423;DHT22;14878;50.778;0.258;2022-11-03T02:16:32;15.20;99.90
27423;DHT22;14878;50.778;0.258;2022-11-03T02:17:34;15.20;99.90
27423;DHT22;14878;50.778;0.258;2022-11-03T02:18:35;15.20;99.90
27423;DHT22;14878;50.778;0.258;2022-11-03T02:21:13;15.20;99.90
27423;DHT22;14878;50.778;0.258;2022-11-03T02:22:28;15.20;99.90
27423;DHT22;14878;50.778;0.258;2022-11-03T02:23:41;15.20;99.90
27423;DHT22;14878;50.778;0.258;2022-11-03T02:26:14;15.20;99.90
27423;DHT22;14878;50.778;0.258;2022-11-03T02:27:16;15.20;99.90
27423;DHT22;14878;50.778;0.258;2022-11-03T02:28:19;15.20;99.90
27423;DHT22;14878;50.778;0.258;2022-11-03T02:29:21;15.20;99.90
27423;DHT22;14878;50.778;0.258;2022-11-03T02:30:22;15.20;99.90
27423;DHT22;14878;50.778;0.258;2022-11-03T02:32:02;15.20;99.90
27423;DHT22;14878;50.778;0.258;2022-11-03T02:33:22;15.20;99.90
27423;DHT22;14878;50.778;0.258;2022-11-03T02:34:47;15.20;99.90
27423;DHT22;14878;50.778;0.258;2022-11-03T02:36:05;15.20;99.90
27423;DHT22;14878;50.778;0.258;2022-11-03T02:38:55;15.20;99.90
27423;DHT22;14878;50.778;0.258;2022-11-03T02:40:07;15.20;99.90
27423;DHT22;14878;50.778;0.258;2022-11-03T02:41:11;15.20;99.90
27423;DHT22;14878;50.778;0.258;2022-11-03T02:42:13;15.20;99.90
27423;DHT22;14878;50.778;0.258;2022-11-03T02:43:16;15.10;99.90
27423;DHT22;14878;50.778;0.258;2022-11-03T02:44:19;15.20;99.90
27423;DHT22;14878;50.778;0.258;2022-11-03T02:45:22;15.20;99.90
27423;DHT22;14878;50.778;0.258;2022-11-03T02:46:24;15.10;99.90
27423;DHT22;14878;50.778;0.258;2022-11-03T02:47:27;15.10;99.90
27423;DHT22;14878;50.778;0.258;2022-11-03T02:48:29;15.10;99.90
27423;DHT22;14878;50.778;0.258;2022-11-03T02:49:31;15.10;99.90
27423;DHT22;14878;50.778;0.258;2022-11-03T02:50:33;15.00;99.90
27423;DHT22;14878;50.778;0.258;2022-11-03T02:51:34;14.90;99.90
27423;DHT22;14878;50.778;0.258;2022-11-03T02:52:42;14.90;99.90
27423;DHT22;14878;50.778;0.258;2022-11-03T02:56:48;14.70;99.90
27423;DHT22;14878;50.778;0.258;2022-11-03T02:57:56;14.60;99.90
27423;DHT22;14878;50.778;0.258;2022-11-03T02:59:05;14.60;99.90
27423;DHT22;14878;50.778;0.258;2022-11-03T03:00:08;14.60;99.90
27423;DHT22;14878;50.778;0.258;2022-11-03T03:01:34;14.60;99.90
27423;DHT22;14878;50.778;0.258;2022-11-03T03:03:10;14.50;99.90
27423;DHT22;14878;50.778;0.258;2022-11-03T03:04:36;14.50;99.90
27423;DHT22;14878;50.778;0.258;2022-11-03T03:05:40;14.50;99.90
27423;DHT22;14878;50.778;0.258;2022-11-03T03:06:47;14.50;99.90
27423;DHT22;14878;50.778;0.258;2022-11-03T03:07:52;14.50;99.90
27423;DHT22;14878;50.778;0.258;2022-11-03T03:09:01;14.50;99.90
27423;DHT22;14878;50.778;0.258;2022-11-03T03:10:24;14.50;99.90
27423;DHT22;14878;50.778;0.258;2022-11-03T03:11:26;14.50;99.90
27423;DHT22;14878;50.778;0.258;2022-11-03T03:12:44;14.50;99.90
27423;DHT22;14878;50.778;0.258;2022-11-03T03:13:46;14.50;99.90
27423;DHT22;14878;50.778;0.258;2022-11-03T03:14:49;14.60;99.90
27423;DHT22;14878;50.778;0.258;2022-11-03T03:19:52;14.60;99.90
27423;DHT22;14878;50.778;0.258;2022-11-03T03:21:02;14.60;99.90
27423;DHT22;14878;50.778;0.258;2022-11-03T03:23:22;14.60;99.90
27423;DHT22;14878;50.778;0.258;2022-11-03T03:24:35;14.60;99.90
27423;DHT22;14878;50.778;0.258;2022-11-03T03:25:44;14.60;99.90
27423;DHT22;14878;50.778;0.258;2022-11-03T03:26:47;14.60;99.90
27423;DHT22;14878;50.778;0.258;2022-11-03T03:27:57;14.60;99.90
27423;DHT22;14878;50.778;0.258;2022-11-03T03:29:05;14.60;99.90
27423;DHT22;14878;50.778;0.258;2022-11-03T03:30:09;14.60;99.90
27423;DHT22;14878;50.778;0.258;2022-11-03T03:31:12;14.60;99.90
27423;DHT22;14878;50.778;0.258;2022-11-03T03:32:18;14.50;99.90
27423;DHT22;14878;50.778;0.258;2022-11-03T03:33:20;14.60;99.90
27423;DHT22;14878;50.778;0.258;2022-11-03T03:34:24;14.60;99.90
27423;DHT22;14878;50.778;0.258;2022-11-03T03:35:28;14.60;99.90
27423;DHT22;14878;50.778;0.258;2022-11-03T03:36:33;14.60;99.90
27423;DHT22;14878;50.778;0.258;2022-11-03T03:37:38;14.60;99.90
27423;DHT22;14878;50.778;0.258;2022-11-03T03:38:43;14.60;99.90
27423;DHT22;14878;50.778;0.258;2022-11-03T03:39:48;14.60;99.90
27423;DHT22;14878;50.778;0.258;2022-11-03T03:40:53;14.60;99.90
27423;DHT22;14878;50.778;0.258;2022-11-03T03:41:56;14.70;99.90
27423;DHT22;14878;50.778;0.258;2022-11-03T03:42:58;14.70;99.90
27423;DHT22;14878;50.778;0.258;2022-11-03T03:44:03;14.70;99.90
27423;DHT22;14878;50.778;0.258;2022-11-03T03:45:06;14.70;99.90
27423;DHT22;14878;50.778;0.258;2022-11-03T03:46:10;14.60;99.90
27423;DHT22;14878;50.778;0.258;2022-11-03T03:47:18;14.70;99.90
27423;DHT22;14878;50.778;0.258;2022-11-03T03:48:21;14.70;99.90
27423;DHT22;14878;50.778;0.258;2022-11-03T03:49:22;14.70;99.90
27423;DHT22;14878;50.778;0.258;2022-11-03T03:50:24;14.70;99.90
27423;DHT22;14878;50.778;0.258;2022-11-03T03:51:27;14.70;99.90
27423;DHT22;14878;50.778;0.258;2022-11-03T03:52:29;14.70;99.90
27423;DHT22;14878;50.778;0.258;2022-11-03T03:53:33;14.70;99.90
27423;DHT22;14878;50.778;0.258;2022-11-03T03:54:33;14.70;99.90
27423;DHT22;14878;50.778;0.258;2022-11-03T03:55:46;14.70;99.90
27423;DHT22;14878;50.778;0.258;2022-11-03T03:57:02;14.70;99.90
27423;DHT22;14878;50.778;0.258;2022-11-03T03:58:04;14.70;99.90
27423;DHT22;14878;50.778;0.258;2022-11-03T03:59:05;14.70;99.90
27423;DHT22;14878;50.778;0.258;2022-11-03T04:00:06;14.70;99.90
27423;DHT22;14878;50.778;0.258;2022-11-03T04:01:11;14.80;99.90
27423;DHT22;14878;50.778;0.258;2022-11-03T04:02:12;14.80;99.90
27423;DHT22;14878;50.778;0.258;2022-11-03T04:03:18;14.80;99.90
27423;DHT22;14878;50.778;0.258;2022-11-03T04:04:19;14.80;99.90
27423;DHT22;14878;50.778;0.258;2022-11-03T04:05:20;14.80;99.90
27423;DHT22;14878;50.778;0.258;2022-11-03T04:06:21;14.80;99.90
27423;DHT22;14878;50.778;0.258;2022-11-03T04:07:21;14.80;99.90
27423;DHT22;14878;50.778;0.258;2022-11-03T04:08:41;14.80;99.90
27423;DHT22;14878;50.778;0.258;2022-11-03T04:09:41;14.80;99.90
27423;DHT22;14878;50.778;0.258;2022-11-03T04:10:43;14.80;99.90
27423;DHT22;14878;50.778;0.258;2022-11-03T04:12:04;14.80;99.90
27423;DHT22;14878;50.778;0.258;2022-11-03T04:13:23;14.80;99.90
27423;DHT22;14878;50.778;0.258;2022-11-03T04:14:42;14.80;99.90
27423;DHT22;14878;50.778;0.258;2022-11-03T04:16:02;14.80;99.90
27423;DHT22;14878;50.778;0.258;2022-11-03T04:17:21;14.70;99.90
27423;DHT22;14878;50.778;0.258;2022-11-03T04:18:40;14.70;99.90
27423;DHT22;14878;50.778;0.258;2022-11-03T04:20:19;14.70;99.90
27423;DHT22;14878;50.778;0.258;2022-11-03T04:21:39;14.60;99.90
27423;DHT22;14878;50.778;0.258;2022-11-03T04:22:58;14.60;99.90
27423;DHT22;14878;50.778;0.258;2022-11-03T04:23:59;14.50;99.90
27423;DHT22;14878;50.778;0.258;2022-11-03T04:25:00;14.50;99.90
27423;DHT22;14878;50.778;0.258;2022-11-03T04:26:01;14.50;99.90
27423;DHT22;14878;50.778;0.258;2022-11-03T04:28:26;14.50;99.90
27423;DHT22;14878;50.778;0.258;2022-11-03T04:29:28;14.50;99.90
27423;DHT22;14878;50.778;0.258;2022-11-03T04:30:28;14.50;99.90
27423;DHT22;14878;50.778;0.258;2022-11-03T04:31:31;14.50;99.90
27423;DHT22;14878;50.778;0.258;2022-11-03T04:32:35;14.50;99.90
27423;DHT22;14878;50.778;0.258;2022-11-03T04:33:36;14.50;99.90
27423;DHT22;14878;50.778;0.258;2022-11-03T04:34:37;14.50;99.90
27423;DHT22;14878;50.778;0.258;2022-11-03T04:35:37;14.50;99.90
27423;DHT22;14878;50.778;0.258;2022-11-03T04:36:38;14.60;99.90
27423;DHT22;14878;50.778;0.258;2022-11-03T04:37:39;14.60;99.90
27423;DHT22;14878;50.778;0.258;2022-11-03T04:38:40;14.60;99.90
27423;DHT22;14878;50.778;0.258;2022-11-03T04:39:42;14.60;99.90
27423;DHT22;14878;50.778;0.258;2022-11-03T04:40:52;14.60;99.90
27423;DHT22;14878;50.778;0.258;2022-11-03T04:41:53;14.60;99.90
27423;DHT22;14878;50.778;0.258;2022-11-03T04:42:54;14.60;99.90
27423;DHT22;14878;50.778;0.258;2022-11-03T04:43:56;14.60;99.90
27423;DHT22;14878;50.778;0.258;2022-11-03T04:44:58;14.60;99.90
27423;DHT22;14878;50.778;0.258;2022-11-03T04:46:00;14.60;99.90
27423;DHT22;14878;50.778;0.258;2022-11-03T04:47:01;14.50;99.90
27423;DHT22;14878;50.778;0.258;2022-11-03T04:48:12;14.50;99.90
27423;DHT22;14878;50.778;0.258;2022-11-03T04:49:21;14.50;99.90
27423;DHT22;14878;50.778;0.258;2022-11-03T04:50:23;14.50;99.90
27423;DHT22;14878;50.778;0.258;2022-11-03T04:51:26;14.50;99.90
27423;DHT22;14878;50.778;0.258;2022-11-03T04:52:28;14.50;99.90
27423;DHT22;14878;50.778;0.258;2022-11-03T04:53:31;14.50;99.90
27423;DHT22;14878;50.778;0.258;2022-11-03T04:54:32;14.50;99.90
27423;DHT22;14878;50.778;0.258;2022-11-03T04:55:33;14.40;99.90
27423;DHT22;14878;50.778;0.258;2022-11-03T04:56:34;14.40;99.90
27423;DHT22;14878;50.778;0.258;2022-11-03T04:57:34;14.50;99.90
27423;DHT22;14878;50.778;0.258;2022-11-03T04:58:35;14.40;99.90
27423;DHT22;14878;50.778;0.258;2022-11-03T04:59:36;13.80;99.90
27423;DHT22;14878;50.778;0.258;2022-11-03T05:00:37;14.40;99.90
27423;DHT22;14878;50.778;0.258;2022-11-03T05:01:39;14.40;99.90
27423;DHT22;14878;50.778;0.258;2022-11-03T05:02:41;14.40;99.90
27423;DHT22;14878;50.778;0.258;2022-11-03T05:03:42;14.40;99.90
27423;DHT22;14878;50.778;0.258;2022-11-03T05:04:44;14.30;99.90
27423;DHT22;14878;50.778;0.258;2022-11-03T05:05:45;14.40;99.90
27423;DHT22;14878;50.778;0.258;2022-11-03T05:06:50;14.40;99.90
27423;DHT22;14878;50.778;0.258;2022-11-03T05:07:54;14.40;99.90
27423;DHT22;14878;50.778;0.258;2022-11-03T05:08:58;14.40;99.90
27423;DHT22;14878;50.778;0.258;2022-11-03T05:10:00;14.40;99.90
27423;DHT22;14878;50.778;0.258;2022-11-03T05:11:21;14.30;99.90
27423;DHT22;14878;50.778;0.258;2022-11-03T05:12:25;14.30;99.90
27423;DHT22;14878;50.778;0.258;2022-11-03T05:13:27;14.30;99.90
27423;DHT22;14878;50.778;0.258;2022-11-03T05:14:30;14.40;99.90
27423;DHT22;14878;50.778;0.258;2022-11-03T05:15:37;14.40;99.90
27423;DHT22;14878;50.778;0.258;2022-11-03T05:16:40;14.40;99.90
27423;DHT22;14878;50.778;0.258;2022-11-03T05:17:41;14.40;99.90
27423;DHT22;14878;50.778;0.258;2022-11-03T05:18:43;14.40;99.90
27423;DHT22;14878;50.778;0.258;2022-11-03T05:19:45;14.40;99.90
27423;DHT22;14878;50.778;0.258;2022-11-03T05:20:51;14.50;99.90
27423;DHT22;14878;50.778;0.258;2022-11-03T05:21:55;14.50;99.90
27423;DHT22;14878;50.778;0.258;2022-11-03T05:22:58;14.50;99.90
27423;DHT22;14878;50.778;0.258;2022-11-03T05:24:02;14.50;99.90
27423;DHT22;14878;50.778;0.258;2022-11-03T05:25:33;14.50;99.90
27423;DHT22;14878;50.778;0.258;2022-11-03T05:26:35;14.50;99.90
27423;DHT22;14878;50.778;0.258;2022-11-03T05:27:36;14.60;99.90
27423;DHT22;14878;50.778;0.258;2022-11-03T05:28:43;14.60;99.90
27423;DHT22;14878;50.778;0.258;2022-11-03T05:29:45;14.60;99.90
27423;DHT22;14878;50.778;0.258;2022-11-03T05:30:48;14.70;99.90
27423;DHT22;14878;50.778;0.258;2022-11-03T05:31:50;14.70;99.90
27423;DHT22;14878;50.778;0.258;2022-11-03T05:32:51;14.70;99.90
27423;DHT22;14878;50.778;0.258;2022-11-03T05:33:55;14.70;99.90
27423;DHT22;14878;50.778;0.258;2022-11-03T05:34:56;14.70;99.90
27423;DHT22;14878;50.778;0.258;2022-11-03T05:36:01;14.70;99.90
27423;DHT22;14878;50.778;0.258;2022-11-03T05:38:11;14.80;99.90
27423;DHT22;14878;50.778;0.258;2022-11-03T05:40:24;14.80;99.90
27423;DHT22;14878;50.778;0.258;2022-11-03T05:41:27;14.90;99.90
27423;DHT22;14878;50.778;0.258;2022-11-03T05:42:34;14.80;99.90
27423;DHT22;14878;50.778;0.258;2022-11-03T05:43:36;14.80;99.90
27423;DHT22;14878;50.778;0.258;2022-11-03T05:44:38;14.80;99.90
27423;DHT22;14878;50.778;0.258;2022-11-03T05:45:40;14.90;99.90
27423;DHT22;14878;50.778;0.258;2022-11-03T05:46:41;14.80;99.90
27423;DHT22;14878;50.778;0.258;2022-11-03T05:47:42;14.80;99.90
27423;DHT22;14878;50.778;0.258;2022-11-03T05:48:43;14.80;99.90
27423;DHT22;14878;50.778;0.258;2022-11-03T05:49:44;14.80;99.90
27423;DHT22;14878;50.778;0.258;2022-11-03T05:50:45;14.80;99.90
27423;DHT22;14878;50.778;0.258;2022-11-03T05:51:45;14.80;99.90
27423;DHT22;14878;50.778;0.258;2022-11-03T05:52:49;14.80;99.90
27423;DHT22;14878;50.778;0.258;2022-11-03T05:53:54;14.90;99.90
27423;DHT22;14878;50.778;0.258;2022-11-03T05:54:57;14.80;99.90
27423;DHT22;14878;50.778;0.258;2022-11-03T05:56:01;14.90;99.90
27423;DHT22;14878;50.778;0.258;2022-11-03T05:57:09;14.90;99.90
27423;DHT22;14878;50.778;0.258;2022-11-03T05:59:27;14.90;99.90
27423;DHT22;14878;50.778;0.258;2022-11-03T06:00:35;14.90;99.90
27423;DHT22;14878;50.778;0.258;2022-11-03T06:01:38;14.90;99.90
27423;DHT22;14878;50.778;0.258;2022-11-03T06:02:41;14.90;99.90
27423;DHT22;14878;50.778;0.258;2022-11-03T06:03:42;14.90;99.90
27423;DHT22;14878;50.778;0.258;2022-11-03T06:04:43;14.90;99.90
27423;DHT22;14878;50.778;0.258;2022-11-03T06:05:45;14.90;99.90
27423;DHT22;14878;50.778;0.258;2022-11-03T06:06:51;14.90;99.90
27423;DHT22;14878;50.778;0.258;2022-11-03T06:07:55;14.90;99.90
27423;DHT22;14878;50.778;0.258;2022-11-03T06:08:57;14.90;99.90
27423;DHT22;14878;50.778;0.258;2022-11-03T06:09:58;14.90;99.90
27423;DHT22;14878;50.778;0.258;2022-11-03T06:11:00;14.90;99.90
27423;DHT22;14878;50.778;0.258;2022-11-03T06:12:04;14.90;99.90
27423;DHT22;14878;50.778;0.258;2022-11-03T06:13:38;14.90;99.90
27423;DHT22;14878;50.778;0.258;2022-11-03T06:14:39;15.00;99.90
27423;DHT22;14878;50.778;0.258;2022-11-03T06:15:41;15.00;99.90
27423;DHT22;14878;50.778;0.258;2022-11-03T06:16:46;15.00;99.90
27423;DHT22;14878;50.778;0.258;2022-11-03T06:17:47;15.00;99.90
27423;DHT22;14878;50.778;0.258;2022-11-03T06:18:48;14.90;99.90
27423;DHT22;14878;50.778;0.258;2022-11-03T06:19:52;14.90;99.90
27423;DHT22;14878;50.778;0.258;2022-11-03T06:20:58;15.00;99.90
27423;DHT22;14878;50.778;0.258;2022-11-03T06:22:10;15.00;99.90
27423;DHT22;14878;50.778;0.258;2022-11-03T06:23:14;15.00;99.90
27423;DHT22;14878;50.778;0.258;2022-11-03T06:24:19;15.00;99.90
27423;DHT22;14878;50.778;0.258;2022-11-03T06:25:30;15.00;99.90
27423;DHT22;14878;50.778;0.258;2022-11-03T06:26:32;15.00;99.90
27423;DHT22;14878;50.778;0.258;2022-11-03T06:27:33;14.90;99.90
27423;DHT22;14878;50.778;0.258;2022-11-03T06:28:35;14.90;99.90
27423;DHT22;14878;50.778;0.258;2022-11-03T06:29:38;14.90;99.90
27423;DHT22;14878;50.778;0.258;2022-11-03T06:30:40;14.90;99.90
27423;DHT22;14878;50.778;0.258;2022-11-03T06:31:42;14.90;99.90
27423;DHT22;14878;50.778;0.258;2022-11-03T06:32:44;14.90;99.90
27423;DHT22;14878;50.778;0.258;2022-11-03T06:33:45;15.00;99.90
27423;DHT22;14878;50.778;0.258;2022-11-03T06:34:51;14.90;99.90
27423;DHT22;14878;50.778;0.258;2022-11-03T06:36:01;14.90;99.90
27423;DHT22;14878;50.778;0.258;2022-11-03T06:38:25;14.90;99.90
27423;DHT22;14878;50.778;0.258;2022-11-03T06:39:27;14.90;99.90
27423;DHT22;14878;50.778;0.258;2022-11-03T06:40:35;14.90;99.90
27423;DHT22;14878;50.778;0.258;2022-11-03T06:41:36;14.90;99.90
27423;DHT22;14878;50.778;0.258;2022-11-03T06:42:37;14.90;99.90
27423;DHT22;14878;50.778;0.258;2022-11-03T06:43:40;14.90;99.90
27423;DHT22;14878;50.778;0.258;2022-11-03T06:44:44;14.90;99.90
27423;DHT22;14878;50.778;0.258;2022-11-03T06:45:48;14.90;99.90
27423;DHT22;14878;50.778;0.258;2022-11-03T06:46:53;14.80;99.90
27423;DHT22;14878;50.778;0.258;2022-11-03T06:47:55;14.90;99.90
27423;DHT22;14878;50.778;0.258;2022-11-03T06:49:00;14.90;99.90
27423;DHT22;14878;50.778;0.258;2022-11-03T06:50:27;14.80;99.90
27423;DHT22;14878;50.778;0.258;2022-11-03T06:51:28;14.80;99.90
27423;DHT22;14878;50.778;0.258;2022-11-03T06:52:36;14.80;99.90
27423;DHT22;14878;50.778;0.258;2022-11-03T06:53:37;14.80;99.90
27423;DHT22;14878;50.778;0.258;2022-11-03T06:54:38;14.80;99.90
27423;DHT22;14878;50.778;0.258;2022-11-03T06:55:39;14.70;99.90
27423;DHT22;14878;50.778;0.258;2022-11-03T06:56:40;14.70;99.90
27423;DHT22;14878;50.778;0.258;2022-11-03T06:57:44;14.70;99.90
27423;DHT22;14878;50.778;0.258;2022-11-03T06:58:46;14.70;99.90
27423;DHT22;14878;50.778;0.258;2022-11-03T06:59:49;14.60;99.90
27423;DHT22;14878;50.778;0.258;2022-11-03T07:00:51;14.60;99.90
27423;DHT22;14878;50.778;0.258;2022-11-03T07:01:54;14.50;99.90
27423;DHT22;14878;50.778;0.258;2022-11-03T07:04:21;14.50;99.90
27423;DHT22;14878;50.778;0.258;2022-11-03T07:05:26;14.50;99.90
27423;DHT22;14878;50.778;0.258;2022-11-03T07:06:33;14.40;99.90
27423;DHT22;14878;50.778;0.258;2022-11-03T07:07:35;14.40;99.90
27423;DHT22;14878;50.778;0.258;2022-11-03T07:08:42;14.30;99.90
27423;DHT22;14878;50.778;0.258;2022-11-03T07:09:43;14.40;99.90
27423;DHT22;14878;50.778;0.258;2022-11-03T07:10:43;14.40;99.90
27423;DHT22;14878;50.778;0.258;2022-11-03T07:11:50;14.30;99.90
27423;DHT22;14878;50.778;0.258;2022-11-03T07:12:51;14.40;99.90
27423;DHT22;14878;50.778;0.258;2022-11-03T07:13:56;14.40;99.90
27423;DHT22;14878;50.778;0.258;2022-11-03T07:14:57;14.40;99.90
27423;DHT22;14878;50.778;0.258;2022-11-03T07:15:58;14.40;99.90
27423;DHT22;14878;50.778;0.258;2022-11-03T07:17:04;14.40;99.90
27423;DHT22;14878;50.778;0.258;2022-11-03T07:19:29;14.40;99.90
27423;DHT22;14878;50.778;0.258;2022-11-03T07:20:32;14.40;99.90
27423;DHT22;14878;50.778;0.258;2022-11-03T07:21:52;14.40;99.90
27423;DHT22;14878;50.778;0.258;2022-11-03T07:22:55;14.40;99.90
27423;DHT22;14878;50.778;0.258;2022-11-03T07:23:59;14.30;99.90
27423;DHT22;14878;50.778;0.258;2022-11-03T07:25:04;14.30;99.90
27423;DHT22;14878;50.778;0.258;2022-11-03T07:26:07;14.30;99.90
27423;DHT22;14878;50.778;0.258;2022-11-03T07:27:20;14.30;99.90
27423;DHT22;14878;50.778;0.258;2022-11-03T07:28:24;14.20;99.90
27423;DHT22;14878;50.778;0.258;2022-11-03T07:29:28;14.20;99.90
27423;DHT22;14878;50.778;0.258;2022-11-03T07:30:33;14.00;99.90
27423;DHT22;14878;50.778;0.258;2022-11-03T07:31:34;13.80;99.90
27423;DHT22;14878;50.778;0.258;2022-11-03T07:32:35;13.40;99.90
27423;DHT22;14878;50.778;0.258;2022-11-03T07:33:36;13.20;99.90
27423;DHT22;14878;50.778;0.258;2022-11-03T07:34:36;12.90;99.90
27423;DHT22;14878;50.778;0.258;2022-11-03T07:35:40;12.60;99.90
27423;DHT22;14878;50.778;0.258;2022-11-03T07:36:42;12.40;99.90
27423;DHT22;14878;50.778;0.258;2022-11-03T07:37:45;12.30;99.90
27423;DHT22;14878;50.778;0.258;2022-11-03T07:38:49;12.20;99.90
27423;DHT22;14878;50.778;0.258;2022-11-03T07:39:51;12.10;99.90
27423;DHT22;14878;50.778;0.258;2022-11-03T07:40:53;12.10;99.90
27423;DHT22;14878;50.778;0.258;2022-11-03T07:41:55;12.20;99.90
27423;DHT22;14878;50.778;0.258;2022-11-03T07:43:01;12.20;99.90
27423;DHT22;14878;50.778;0.258;2022-11-03T07:44:13;12.20;99.90
27423;DHT22;14878;50.778;0.258;2022-11-03T07:46:35;12.20;99.90
27423;DHT22;14878;50.778;0.258;2022-11-03T07:47:36;12.20;99.90
27423;DHT22;14878;50.778;0.258;2022-11-03T07:48:50;12.20;99.90
27423;DHT22;14878;50.778;0.258;2022-11-03T07:49:51;12.20;99.90
27423;DHT22;14878;50.778;0.258;2022-11-03T07:50:58;12.20;99.90
27423;DHT22;14878;50.778;0.258;2022-11-03T07:51:59;12.20;99.90
27423;DHT22;14878;50.778;0.258;2022-11-03T07:53:13;12.20;99.90
27423;DHT22;14878;50.778;0.258;2022-11-03T07:54:23;12.20;99.90
27423;DHT22;14878;50.778;0.258;2022-11-03T07:55:26;12.30;99.90
27423;DHT22;14878;50.778;0.258;2022-11-03T07:56:32;12.30;99.90
27423;DHT22;14878;50.778;0.258;2022-11-03T07:57:34;12.30;99.90
27423;DHT22;14878;50.778;0.258;2022-11-03T07:58:37;13.50;99.90
27423;DHT22;14878;50.778;0.258;2022-11-03T07:59:45;12.30;99.90
27423;DHT22;14878;50.778;0.258;2022-11-03T08:00:46;12.20;99.90
27423;DHT22;14878;50.778;0.258;2022-11-03T08:01:49;12.20;99.90
27423;DHT22;14878;50.778;0.258;2022-11-03T08:02:51;12.20;99.90
27423;DHT22;14878;50.778;0.258;2022-11-03T08:05:24;12.30;99.90
27423;DHT22;14878;50.778;0.258;2022-11-03T08:06:25;12.30;99.90
27423;DHT22;14878;50.778;0.258;2022-11-03T08:07:26;12.30;99.90
27423;DHT22;14878;50.778;0.258;2022-11-03T08:08:29;12.30;99.90
27423;DHT22;14878;50.778;0.258;2022-11-03T08:09:30;12.30;99.90
27423;DHT22;14878;50.778;0.258;2022-11-03T08:10:31;12.10;99.90
27423;DHT22;14878;50.778;0.258;2022-11-03T08:11:31;12.10;99.90
27423;DHT22;14878;50.778;0.258;2022-11-03T08:12:32;12.10;99.90
27423;DHT22;14878;50.778;0.258;2022-11-03T08:13:33;12.10;99.90
27423;DHT22;14878;50.778;0.258;2022-11-03T08:14:33;12.10;99.90
27423;DHT22;14878;50.778;0.258;2022-11-03T08:15:34;12.20;99.90
27423;DHT22;14878;50.778;0.258;2022-11-03T08:16:35;12.20;99.90
27423;DHT22;14878;50.778;0.258;2022-11-03T08:17:36;12.20;99.90
27423;DHT22;14878;50.778;0.258;2022-11-03T08:18:37;12.30;99.90
27423;DHT22;14878;50.778;0.258;2022-11-03T08:19:37;12.30;99.90
27423;DHT22;14878;50.778;0.258;2022-11-03T08:20:38;12.30;99.90
27423;DHT22;14878;50.778;0.258;2022-11-03T08:21:39;12.20;99.90
27423;DHT22;14878;50.778;0.258;2022-11-03T08:22:39;12.20;99.90
27423;DHT22;14878;50.778;0.258;2022-11-03T08:23:40;12.20;99.90
27423;DHT22;14878;50.778;0.258;2022-11-03T08:24:41;12.20;99.90
27423;DHT22;14878;50.778;0.258;2022-11-03T08:25:42;12.30;99.90
27423;DHT22;14878;50.778;0.258;2022-11-03T08:26:43;12.30;99.90
27423;DHT22;14878;50.778;0.258;2022-11-03T08:27:43;12.40;99.90
27423;DHT22;14878;50.778;0.258;2022-11-03T08:28:44;12.40;99.90
27423;DHT22;14878;50.778;0.258;2022-11-03T08:29:45;12.40;99.90